Time;durP1;ratioP1;P1;durP2;ratioP2;P2;SDS_P1;SDS_P2;PMS_P1;PMS_P2;Temp;Humidity;BMP_temperature;BMP_pressure;BME280_temperature;BME280_humidity;BME280_pressure;Samples;Min_cycle;Max_cycle;Signal;HPM_P1;HPM_P2
2023/01/30 00:03:04;;;;;;;26.90;18.70;;;;;;;0.16;88.22;100270.29;214551;1264;61709;-74
2023/01/30 00:07:57;;;;;;;29.90;18.70;;;;;;;0.18;88.15;100267.16;214549;1265;67129;-74
2023/01/30 00:12:50;;;;;;;27.20;17.90;;;;;;;0.18;88.30;100261.55;214568;1265;61331;-74
2023/01/30 00:17:43;;;;;;;23.70;15.50;;;;;;;0.21;88.40;100255.54;214661;1265;64470;-73
2023/01/30 00:22:36;;;;;;;23.20;16.70;;;;;;;0.23;88.40;100238.57;214618;1264;61332;-74
2023/01/30 00:27:30;;;;;;;23.70;16.70;;;;;;;0.23;88.42;100225.15;214619;1262;61269;-73
2023/01/30 00:32:25;;;;;;;24.70;16.70;;;;;;;0.25;88.31;100217.75;214624;1267;67125;-74
2023/01/30 00:37:18;;;;;;;25.00;14.60;;;;;;;0.26;88.37;100200.73;214548;1264;61389;-74
2023/01/30 00:47:22;;;;;;;22.60;15.30;;;;;;;0.29;88.36;100189.96;214504;1266;73640;-74
2023/01/30 00:52:18;;;;;;;22.20;14.90;;;;;;;0.30;88.50;100167.04;214604;1264;61284;-73
2023/01/30 00:57:11;;;;;;;20.50;14.10;;;;;;;0.31;88.44;100151.04;214598;1265;61866;-74
2023/01/30 01:02:03;;;;;;;23.10;15.00;;;;;;;0.33;88.73;100142.45;214563;1265;61380;-74
2023/01/30 01:06:58;;;;;;;21.70;14.60;;;;;;;0.33;88.66;100129.83;214494;1265;75531;-73
2023/01/30 01:11:50;;;;;;;21.10;14.70;;;;;;;0.33;88.92;100110.58;214480;1268;61284;-73
2023/01/30 01:16:44;;;;;;;20.20;13.60;;;;;;;0.34;88.88;100105.83;214522;1265;61348;-74
2023/01/30 01:21:38;;;;;;;19.20;13.10;;;;;;;0.34;88.73;100097.14;214500;1265;66890;-74
2023/01/30 01:26:31;;;;;;;19.80;13.40;;;;;;;0.35;88.88;100084.04;214381;1266;61675;-73
2023/01/30 01:31:24;;;;;;;18.60;13.70;;;;;;;0.36;89.07;100066.04;214390;1266;75258;-74
2023/01/30 01:36:20;;;;;;;18.10;12.60;;;;;;;0.36;88.85;100050.19;214412;1266;73367;-74
2023/01/30 01:41:34;;;;;;;16.10;11.80;;;;;;;0.37;88.70;100027.72;214377;1268;61309;-73
2023/01/30 01:46:45;;;;;;;15.60;11.60;;;;;;;0.36;88.80;100024.13;214419;1265;65609;-74
2023/01/30 01:51:52;;;;;;;16.80;12.60;;;;;;;0.37;88.83;100013.23;214427;1263;61286;-74
2023/01/30 01:56:48;;;;;;;17.10;11.20;;;;;;;0.36;88.94;100005.15;214428;1266;73228;-74
2023/01/30 02:01:43;;;;;;;16.70;13.30;;;;;;;0.35;88.83;99995.24;214472;1265;73194;-74
2023/01/30 02:06:39;;;;;;;14.20;10.10;;;;;;;0.37;88.95;99979.50;214509;1264;61291;-74
2023/01/30 02:11:51;;;;;;;14.10;9.80;;;;;;;0.39;88.43;99974.44;214453;1264;67105;-74
2023/01/30 02:16:46;;;;;;;11.40;8.20;;;;;;;0.39;88.53;99961.48;214556;1267;61316;-74
2023/01/30 02:22:14;;;;;;;16.00;10.90;;;;;;;0.40;88.36;99957.42;214564;1264;74573;-74
2023/01/30 02:27:27;;;;;;;14.30;11.20;;;;;;;0.43;88.34;99960.25;214458;1264;70510;-74
2023/01/30 02:32:50;;;;;;;15.80;10.80;;;;;;;0.43;88.01;99947.30;214522;1268;61289;-74
2023/01/30 02:38:12;;;;;;;15.60;10.60;;;;;;;0.44;88.26;99944.11;214513;1268;66112;-75
2023/01/30 02:43:15;;;;;;;12.30;8.80;;;;;;;0.45;87.90;99930.69;214400;1266;61258;-74
2023/01/30 02:48:14;;;;;;;13.50;9.40;;;;;;;0.45;87.98;99921.17;214466;1266;73638;-74
2023/01/30 02:53:08;;;;;;;12.30;8.10;;;;;;;0.47;87.55;99915.80;214492;1266;71130;-74
2023/01/30 02:58:03;;;;;;;13.60;9.80;;;;;;;0.46;87.32;99903.61;214446;1262;61291;-74
2023/01/30 03:03:48;;;;;;;11.00;7.50;;;;;;;0.46;87.21;99893.61;214472;1263;67039;-74
2023/01/30 03:09:10;;;;;;;12.20;8.30;;;;;;;0.49;87.30;99886.04;214453;1264;61238;-73
2023/01/30 03:14:11;;;;;;;13.60;9.30;;;;;;;0.48;87.25;99880.03;214520;1266;75433;-74
2023/01/30 03:19:07;;;;;;;11.50;8.60;;;;;;;0.48;87.16;99862.83;214566;1266;72641;-74
2023/01/30 03:23:59;;;;;;;12.60;8.70;;;;;;;0.47;86.96;99852.54;214508;1267;61372;-74
2023/01/30 03:28:53;;;;;;;14.80;10.50;;;;;;;0.44;87.42;99841.16;214409;1268;67818;-74
2023/01/30 03:33:46;;;;;;;14.30;10.00;;;;;;;0.39;87.51;99824.04;214480;1268;61301;-74
2023/01/30 03:38:40;;;;;;;14.40;10.10;;;;;;;0.34;87.63;99802.37;214503;1268;74574;-74
2023/01/30 03:43:33;;;;;;;15.40;11.20;;;;;;;0.29;88.02;99789.73;214518;1266;72732;-74
2023/01/30 03:48:27;;;;;;;18.30;13.00;;;;;;;0.28;87.96;99775.50;214517;1263;61366;-74
2023/01/30 03:53:21;;;;;;;16.20;12.00;;;;;;;0.25;88.29;99768.23;214523;1267;67117;-74
2023/01/30 03:58:13;;;;;;;21.50;13.80;;;;;;;0.23;88.40;99763.36;214592;1264;61371;-74
2023/01/30 04:03:06;;;;;;;23.30;13.60;;;;;;;0.17;88.45;99760.56;214546;1267;61289;-74
2023/01/30 04:08:00;;;;;;;20.40;12.60;;;;;;;0.16;88.31;99750.80;214598;1264;71470;-74
2023/01/30 04:12:53;;;;;;;17.80;11.00;;;;;;;0.14;88.38;99748.66;214494;1264;61355;-73
2023/01/30 04:17:47;;;;;;;17.10;10.80;;;;;;;0.11;88.17;99743.24;214396;1267;158356;-74
2023/01/30 04:23:13;;;;;;;17.20;11.70;;;;;;;0.07;87.87;99723.83;214344;1267;61376;-74
2023/01/30 04:28:06;;;;;;;19.00;12.30;;;;;;;0.08;87.90;99718.23;214457;1264;74401;-74
2023/01/30 04:33:02;;;;;;;17.60;11.00;;;;;;;0.08;87.82;99705.50;214454;1264;72870;-74
2023/01/30 04:37:55;;;;;;;18.10;11.80;;;;;;;0.07;87.43;99697.91;214490;1262;61283;-74
2023/01/30 04:42:48;;;;;;;15.30;10.50;;;;;;;0.05;87.59;99673.45;214445;1267;67153;-73
2023/01/30 04:48:04;;;;;;;13.90;8.80;;;;;;;0.04;87.68;99658.59;214593;1263;61285;-74
2023/01/30 04:53:01;;;;;;;13.70;8.80;;;;;;;0.03;87.62;99647.66;214362;1267;75291;-74
2023/01/30 04:57:54;;;;;;;14.50;8.60;;;;;;;0.03;87.16;99640.17;214454;1267;72271;-74
2023/01/30 05:02:47;;;;;;;13.00;8.60;;;;;;;0.05;86.97;99633.58;214499;1264;61305;-74
2023/01/30 05:07:45;;;;;;;10.50;7.20;;;;;;;0.04;86.65;99625.04;214491;1264;66391;-73
2023/01/30 05:12:38;;;;;;;12.40;8.00;;;;;;;0.05;86.44;99622.52;214435;1264;61875;-73
2023/01/30 05:17:31;;;;;;;12.10;7.90;;;;;;;0.06;86.22;99612.85;214469;1264;61272;-73
2023/01/30 05:22:24;;;;;;;12.30;7.50;;;;;;;0.08;86.07;99606.98;214445;1263;61276;-74
2023/01/30 05:27:17;;;;;;;11.30;7.60;;;;;;;0.10;85.67;99604.70;214480;1264;61303;-74
2023/01/30 05:32:14;;;;;;;12.10;7.70;;;;;;;0.11;85.67;99590.73;214429;1266;61292;-74
2023/01/30 05:37:07;;;;;;;;;;;;;;;0.13;85.55;99573.28;214489;1264;61298;-73
2023/01/30 05:42:00;;;;;;;13.10;7.90;;;;;;;0.14;85.31;99551.83;214518;1264;61777;-73
2023/01/30 05:46:52;;;;;;;13.60;8.00;;;;;;;0.13;85.09;99540.36;214552;1267;61311;-73
2023/01/30 05:51:45;;;;;;;12.70;8.70;;;;;;;0.12;84.90;99525.69;214506;1264;61395;-73
2023/01/30 05:56:38;;;;;;;11.40;7.50;;;;;;;0.12;85.04;99521.23;214506;1264;61321;-74
2023/01/30 06:01:31;;;;;;;13.60;8.10;;;;;;;0.13;84.74;99513.10;214434;1264;61367;-74
2023/01/30 06:06:25;;;;;;;15.30;8.10;;;;;;;0.10;84.46;99504.99;214278;1267;61348;-73
2023/01/30 06:11:18;;;;;;;13.90;9.40;;;;;;;0.10;84.42;99515.73;214324;1264;73404;-74
2023/01/30 06:16:13;;;;;;;12.10;7.90;;;;;;;0.09;84.51;99517.55;214329;1264;61253;-73
2023/01/30 06:21:07;;;;;;;10.60;7.70;;;;;;;0.10;84.37;99503.98;214425;1264;67731;-73
2023/01/30 06:26:00;;;;;;;13.20;9.50;;;;;;;0.09;84.56;99488.77;214507;1264;61285;-73
2023/01/30 06:30:57;;;;;;;13.50;8.80;;;;;;;0.08;84.45;99471.15;214480;1266;74397;-73
2023/01/30 06:35:52;;;;;;;10.80;8.00;;;;;;;0.06;84.18;99450.80;214437;1267;61273;-73
2023/01/30 06:40:46;;;;;;;13.20;7.90;;;;;;;0.05;84.35;99442.09;214566;1267;61241;-73
2023/01/30 06:45:39;;;;;;;14.60;9.00;;;;;;;0.06;83.94;99434.47;214451;1264;66337;-73
2023/01/30 06:50:32;;;;;;;12.40;8.20;;;;;;;0.07;83.81;99446.23;214491;1264;61283;-73
2023/01/30 06:55:27;;;;;;;14.40;8.80;;;;;;;0.07;83.82;99451.02;214453;1264;74392;-73
2023/01/30 07:00:20;;;;;;;16.30;9.50;;;;;;;0.07;83.84;99445.59;214435;1267;72366;-73
2023/01/30 07:05:13;;;;;;;14.50;10.10;;;;;;;0.08;83.67;99430.95;214477;1267;61708;-73
2023/01/30 07:10:08;;;;;;;14.90;9.50;;;;;;;0.07;83.46;99415.39;214385;1266;65838;-73
2023/01/30 07:15:01;;;;;;;14.90;11.30;;;;;;;0.07;83.31;99416.29;214525;1264;61281;-74
2023/01/30 07:19:54;;;;;;;14.80;10.50;;;;;;;0.07;83.45;99415.60;214450;1263;61866;-73
2023/01/30 07:24:46;;;;;;;15.70;9.20;;;;;;;0.10;83.19;99408.39;214311;1264;61372;-73
2023/01/30 07:29:40;;;;;;;14.50;10.50;;;;;;;0.12;83.08;99391.94;214282;1264;61343;-73
2023/01/30 07:34:34;;;;;;;17.50;12.50;;;;;;;0.13;82.84;99391.61;215422;1263;66870;-74
2023/01/30 07:39:26;;;;;;;14.70;8.70;;;;;;;0.12;82.76;99392.80;214493;1264;61346;-73
2023/01/30 07:44:19;;;;;;;21.50;12.20;;;;;;;0.13;82.61;99393.68;214592;1264;61611;-73
2023/01/30 07:49:12;;;;;;;17.00;10.80;;;;;;;0.13;82.65;99390.60;214513;1264;61418;-73
2023/01/30 07:54:05;;;;;;;18.50;12.50;;;;;;;0.13;82.72;99374.23;214528;1263;61207;-73
2023/01/30 07:58:58;;;;;;;18.50;12.30;;;;;;;0.13;82.72;99365.73;214510;1264;61286;-73
2023/01/30 08:03:51;;;;;;;22.00;12.90;;;;;;;0.09;82.28;99351.28;214469;1264;61372;-72
2023/01/30 08:08:44;;;;;;;18.70;12.00;;;;;;;0.05;82.70;99346.69;214470;1264;61451;-73
2023/01/30 08:13:37;;;;;;;20.80;12.90;;;;;;;0.02;82.85;99337.55;214472;1265;61297;-73
2023/01/30 08:18:31;;;;;;;18.90;12.80;;;;;;;0.03;83.31;99334.00;214485;1263;61407;-73
2023/01/30 08:23:24;;;;;;;21.70;14.00;;;;;;;0.02;83.44;99331.91;214541;1264;65645;-75
2023/01/30 08:28:17;;;;;;;23.00;14.40;;;;;;;-0.02;83.37;99327.70;214470;1264;61276;-75
2023/01/30 08:33:10;;;;;;;17.10;11.90;;;;;;;-0.07;83.41;99320.02;214573;1264;61308;-74
2023/01/30 08:38:07;;;;;;;17.40;11.00;;;;;;;-0.08;83.95;99319.30;214398;1263;61216;-74
2023/01/30 08:43:00;;;;;;;21.60;14.20;;;;;;;-0.09;84.08;99312.45;214347;1263;61415;-74
2023/01/30 08:47:53;;;;;;;26.60;17.90;;;;;;;-0.08;84.22;99313.34;214196;1264;66120;-75
2023/01/30 08:52:46;;;;;;;20.50;14.00;;;;;;;-0.04;84.31;99307.84;214205;1267;61292;-74
2023/01/30 08:57:39;;;;;;;23.70;14.30;;;;;;;-0.08;84.21;99307.20;214345;1264;61371;-74
2023/01/30 09:02:32;;;;;;;23.40;15.30;;;;;;;-0.12;84.41;99305.00;214558;1264;61345;-73
2023/01/30 09:07:27;;;;;;;27.70;17.70;;;;;;;-0.14;84.38;99295.06;214586;1266;61293;-74
2023/01/30 09:12:20;;;;;;;24.10;14.80;;;;;;;-0.14;84.31;99282.27;214529;1264;67140;-74
2023/01/30 09:17:13;;;;;;;22.50;14.20;;;;;;;-0.12;84.45;99270.27;214535;1265;62484;-73
2023/01/30 09:22:07;;;;;;;22.90;15.30;;;;;;;-0.06;84.48;99255.16;214506;1265;74299;-74
2023/01/30 09:27:00;;;;;;;24.30;17.60;;;;;;;-0.03;84.08;99249.62;214557;1267;72701;-74
2023/01/30 09:31:55;;;;;;;26.50;16.60;;;;;;;0.03;84.33;99252.37;214582;1265;61372;-74
2023/01/30 09:36:48;;;;;;;24.00;15.40;;;;;;;0.04;84.25;99235.56;214615;1264;66453;-74
2023/01/30 09:41:59;;;;;;;23.10;14.30;;;;;;;0.04;84.18;99227.55;214624;1264;61365;-73
2023/01/30 09:47:11;;;;;;;24.80;16.30;;;;;;;0.05;84.23;99220.95;214653;1264;74463;-73
2023/01/30 09:52:25;;;;;;;23.60;15.60;;;;;;;0.10;84.38;99215.52;214610;1264;73515;-73
2023/01/30 09:57:24;;;;;;;26.40;17.00;;;;;;;0.07;84.20;99214.89;214569;1264;61359;-73
2023/01/30 10:02:39;;;;;;;21.10;14.50;;;;;;;0.07;84.30;99199.91;214621;1263;65557;-74
2023/01/30 10:07:35;;;;;;;21.80;14.40;;;;;;;0.09;84.53;99183.78;214614;1264;61334;-73
2023/01/30 10:12:43;;;;;;;21.70;14.90;;;;;;;0.16;84.55;99182.48;214534;1263;75301;-73
2023/01/30 10:18:23;;;;;;;22.30;13.70;;;;;;;0.20;84.92;99163.20;214468;1264;71715;-74
2023/01/30 10:23:43;;;;;;;19.80;14.80;;;;;;;0.22;85.02;99154.73;214500;1264;61407;-74
2023/01/30 10:28:49;;;;;;;19.60;12.90;;;;;;;0.20;85.09;99151.94;214573;1264;65142;-73
2023/01/30 10:34:02;;;;;;;21.70;14.00;;;;;;;0.16;85.29;99148.05;214579;1264;61379;-74
2023/01/30 10:38:59;;;;;;;;;;;;;;;0.13;85.46;99134.84;214545;1264;73445;-73
2023/01/30 10:44:13;;;;;;;16.50;11.90;;;;;;;0.15;85.37;99125.86;214598;1265;73760;-74
2023/01/30 10:49:19;;;;;;;21.70;13.90;;;;;;;0.16;85.66;99121.48;214523;1264;61205;-74
2023/01/30 10:54:41;;;;;;;20.70;13.40;;;;;;;0.18;85.46;99113.03;214276;1264;65526;-74
2023/01/30 11:00:01;;;;;;;16.80;12.50;;;;;;;0.26;85.80;99099.48;214515;1264;61253;-74
2023/01/30 11:05:00;;;;;;;19.30;13.70;;;;;;;0.36;85.54;99094.86;214538;1264;75763;-74
2023/01/30 11:09:53;;;;;;;18.90;13.70;;;;;;;0.36;85.75;99089.41;214544;1263;72313;-74
2023/01/30 11:14:58;;;;;;;15.50;10.90;;;;;;;0.35;85.72;99083.07;214583;1264;61289;-74
2023/01/30 11:19:56;;;;;;;17.00;13.30;;;;;;;0.33;86.08;99080.45;214571;1265;65949;-73
2023/01/30 11:25:00;;;;;;;18.80;13.70;;;;;;;0.31;85.79;99074.60;214527;1263;61361;-74
2023/01/30 11:30:30;;;;;;;17.10;10.50;;;;;;;0.26;86.32;99067.94;214695;1267;75294;-74
2023/01/30 11:35:27;;;;;;;16.20;11.70;;;;;;;0.26;86.52;99057.05;213944;1270;73430;-74
2023/01/30 11:40:20;;;;;;;14.90;10.30;;;;;;;0.25;86.89;99047.83;213935;1270;61301;-74
2023/01/30 11:45:14;;;;;;;16.50;11.50;;;;;;;0.30;86.84;99037.05;213782;1271;67530;-74
2023/01/30 11:50:18;;;;;;;17.20;13.20;;;;;;;0.43;86.87;99033.86;213726;1270;61293;-73
2023/01/30 11:55:22;;;;;;;13.10;10.10;;;;;;;0.55;86.83;99030.82;213720;1270;75161;-74
2023/01/30 12:00:21;;;;;;;12.50;9.10;;;;;;;0.66;86.71;99028.93;213703;1270;71562;-74
2023/01/30 12:05:25;;;;;;;14.60;10.10;;;;;;;0.79;86.85;99032.38;213790;1270;61420;-73
2023/01/30 12:10:29;;;;;;;14.40;8.70;;;;;;;0.82;86.77;99019.50;214115;1264;66976;-74
2023/01/30 12:15:29;;;;;;;15.00;11.20;;;;;;;0.76;86.54;99013.55;214414;1267;61318;-74
2023/01/30 12:20:39;;;;;;;13.30;10.30;;;;;;;0.68;86.73;99014.50;214478;1264;73343;-73
2023/01/30 12:25:40;;;;;;;12.70;9.30;;;;;;;0.63;87.15;99017.75;214458;1264;71217;-74
2023/01/30 12:30:55;;;;;;;12.80;9.60;;;;;;;0.66;87.02;99012.56;214448;1263;61299;-73
2023/01/30 12:36:14;;;;;;;11.40;8.30;;;;;;;0.62;87.23;99009.02;214467;1264;65995;-73
2023/01/30 12:41:28;;;;;;;13.70;9.40;;;;;;;0.57;87.20;99001.05;214446;1264;61212;-73
2023/01/30 12:46:33;;;;;;;14.00;9.30;;;;;;;0.56;87.55;99001.69;214483;1264;75502;-74
2023/01/30 12:51:32;;;;;;;15.50;10.50;;;;;;;0.54;88.11;98995.16;214321;1264;73481;-74
2023/01/30 12:56:25;;;;;;;14.70;10.80;;;;;;;0.54;87.97;98998.58;214499;1264;61351;-75
2023/01/30 13:01:55;;;;;;;14.10;11.00;;;;;;;0.53;88.31;99006.58;214427;1264;61293;-75
2023/01/30 13:07:07;;;;;;;13.00;9.40;;;;;;;0.54;88.01;99008.80;214428;1264;61264;-74
2023/01/30 13:12:15;;;;;;;10.20;7.30;;;;;;;0.55;88.13;99005.26;214471;1264;75441;-75
2023/01/30 13:17:37;;;;;;;13.10;10.70;;;;;;;0.56;88.18;98997.95;214458;1264;72691;-74
2023/01/30 13:22:49;;;;;;;13.30;10.40;;;;;;;0.60;88.29;98987.16;214024;1268;61294;-75
2023/01/30 13:27:55;;;;;;;15.20;10.90;;;;;;;0.62;88.20;98983.80;214035;1268;66590;-75
2023/01/30 13:32:51;;;;;;;13.80;11.30;;;;;;;0.62;88.13;98986.52;214051;1268;63355;-74
2023/01/30 13:37:47;;;;;;;14.50;10.60;;;;;;;0.60;88.38;98986.48;213966;1268;73561;-75
2023/01/30 13:42:59;;;;;;;15.60;10.20;;;;;;;0.61;88.59;98978.66;213957;1270;73302;-74
2023/01/30 13:48:19;;;;;;;13.90;10.00;;;;;;;0.62;88.56;98974.07;214001;1268;61345;-74
2023/01/30 13:53:23;;;;;;;17.00;12.20;;;;;;;0.61;89.09;98971.84;214020;1268;68081;-74
2023/01/30 13:58:40;;;;;;;16.90;12.70;;;;;;;0.62;89.01;98979.04;214141;1264;61264;-74
2023/01/30 14:03:34;;;;;;;17.90;13.40;;;;;;;0.64;89.03;98972.27;214406;1264;74345;-75
2023/01/30 14:08:28;;;;;;;19.70;14.20;;;;;;;0.66;89.16;98962.44;214560;1264;71892;-74
2023/01/30 14:13:23;;;;;;;17.60;13.60;;;;;;;0.68;89.54;98963.35;214585;1264;61362;-74
2023/01/30 14:18:23;;;;;;;20.10;14.40;;;;;;;0.70;89.73;98979.42;214479;1264;65544;-74
2023/01/30 14:23:35;;;;;;;18.70;13.20;;;;;;;0.73;89.93;98991.79;214501;1263;61282;-74
2023/01/30 14:28:31;;;;;;;20.60;14.30;;;;;;;0.75;89.78;98993.54;214525;1264;74621;-74
2023/01/30 14:33:24;;;;;;;18.80;13.20;;;;;;;0.78;89.82;98994.80;214408;1265;73478;-74
2023/01/30 14:38:21;;;;;;;19.40;14.60;;;;;;;0.80;89.96;99002.38;214497;1267;61229;-74
2023/01/30 14:43:14;;;;;;;17.40;13.40;;;;;;;0.82;89.74;99008.57;214569;1264;65821;-74
2023/01/30 14:48:42;;;;;;;22.40;14.80;;;;;;;0.84;90.10;99007.26;214487;1263;61290;-74
2023/01/30 14:53:48;;;;;;;16.40;13.30;;;;;;;0.85;90.18;99011.91;213660;1271;75594;-74
2023/01/30 14:58:52;;;;;;;19.10;14.20;;;;;;;0.87;90.04;99015.54;213670;1271;72768;-74
2023/01/30 15:03:49;;;;;;;15.80;11.30;;;;;;;0.89;89.89;99021.23;213412;1271;61239;-74
2023/01/30 15:08:43;;;;;;;18.60;13.00;;;;;;;0.90;90.16;99015.13;213639;1271;69372;-74
2023/01/30 15:13:53;;;;;;;19.00;14.50;;;;;;;0.91;90.28;99009.69;213616;1271;61396;-74
2023/01/30 15:19:10;;;;;;;16.40;12.60;;;;;;;0.90;90.29;99011.89;213710;1271;75070;-74
2023/01/30 15:24:18;;;;;;;20.80;14.40;;;;;;;0.89;90.36;99013.23;213541;1274;71188;-76
2023/01/30 15:29:36;;;;;;;17.30;14.00;;;;;;;0.89;90.17;99015.25;214023;1265;61374;-74
2023/01/30 15:34:31;;;;;;;17.20;14.40;;;;;;;0.88;90.27;99008.42;214540;1264;66921;-74
2023/01/30 15:39:26;;;;;;;17.60;14.10;;;;;;;0.88;90.37;99011.48;214484;1265;61262;-75
2023/01/30 15:44:44;;;;;;;16.00;13.30;;;;;;;0.88;90.31;99021.05;214542;1265;74407;-74
2023/01/30 15:49:50;;;;;;;;;;;;;;;0.88;90.36;99032.14;214512;1264;73508;-75
2023/01/30 15:54:56;;;;;;;21.00;14.10;;;;;;;0.88;90.46;99042.86;214498;1264;61265;-75
2023/01/30 15:59:49;;;;;;;18.70;12.90;;;;;;;0.88;90.63;99061.81;214560;1265;65733;-75
2023/01/30 16:04:42;;;;;;;22.90;16.20;;;;;;;0.88;90.55;99048.01;214524;1265;61389;-75
2023/01/30 16:09:35;;;;;;;18.90;14.70;;;;;;;0.89;90.67;99051.95;214442;1265;61216;-75
2023/01/30 16:14:28;;;;;;;17.70;13.50;;;;;;;0.89;90.46;99055.02;214509;1266;61283;-75
2023/01/30 16:19:27;;;;;;;17.30;11.90;;;;;;;0.90;90.71;99064.24;214399;1264;145297;-75
2023/01/30 16:24:27;;;;;;;18.90;15.00;;;;;;;0.90;90.60;99067.67;214476;1264;67109;-74
2023/01/30 16:29:24;;;;;;;17.80;15.00;;;;;;;0.90;90.82;99058.30;214523;1265;61342;-75
2023/01/30 16:34:35;;;;;;;16.60;12.30;;;;;;;0.91;90.71;99052.51;214484;1267;75394;-75
2023/01/30 16:39:33;;;;;;;19.70;14.40;;;;;;;0.92;90.75;99048.80;214487;1265;70533;-75
2023/01/30 16:44:28;;;;;;;19.50;14.60;;;;;;;0.93;90.79;99035.35;214547;1264;61277;-75
2023/01/30 16:49:37;;;;;;;20.40;14.60;;;;;;;0.95;90.97;99047.16;214440;1263;68129;-75
2023/01/30 16:54:32;;;;;;;20.30;14.60;;;;;;;0.97;90.98;99062.73;214515;1265;61261;-75
2023/01/30 16:59:47;;;;;;;19.20;13.80;;;;;;;0.98;90.89;99066.86;214490;1265;74253;-75
2023/01/30 17:04:42;;;;;;;19.80;14.10;;;;;;;1.00;90.90;99065.73;214571;1266;71546;-75
2023/01/30 17:09:42;;;;;;;21.30;15.70;;;;;;;1.01;90.78;99063.73;214595;1262;61310;-75
2023/01/30 17:14:35;;;;;;;18.60;13.90;;;;;;;1.02;90.86;99061.17;214570;1265;66333;-75
2023/01/30 17:19:28;;;;;;;21.60;15.60;;;;;;;1.03;90.86;99051.13;214523;1265;61284;-77
2023/01/30 17:24:23;;;;;;;18.80;13.40;;;;;;;1.04;90.99;99054.95;214360;1262;74416;-76
2023/01/30 17:29:17;;;;;;;18.60;13.70;;;;;;;1.07;91.09;99051.08;214409;1265;72441;-76
2023/01/30 17:34:29;;;;;;;19.00;14.10;;;;;;;1.10;90.95;99057.66;215887;1263;61424;-73
2023/01/30 17:39:25;;;;;;;18.90;14.00;;;;;;;1.13;91.12;99058.45;214367;1265;61367;-74
2023/01/30 17:44:18;;;;;;;18.70;13.30;;;;;;;1.16;90.98;99064.46;214443;1265;61241;-73
2023/01/30 17:49:17;;;;;;;22.20;15.30;;;;;;;1.17;90.75;99073.89;214393;1266;61331;-73
2023/01/30 17:54:10;;;;;;;20.80;15.00;;;;;;;1.19;90.95;99070.35;214489;1266;70665;-77
2023/01/30 17:59:12;;;;;;;19.40;13.70;;;;;;;1.21;90.70;99065.28;214356;1265;61478;-76
2023/01/30 18:04:05;;;;;;;20.90;13.30;;;;;;;1.23;91.16;99064.52;214369;1267;67966;-77
2023/01/30 18:08:58;;;;;;;17.80;12.80;;;;;;;1.26;90.98;99075.33;214434;1264;61392;-77
2023/01/30 18:13:51;;;;;;;16.10;12.80;;;;;;;1.28;91.26;99074.20;214342;1265;61354;-76
2023/01/30 18:18:44;;;;;;;19.00;11.70;;;;;;;1.32;91.17;99076.05;214419;1265;61411;-76
2023/01/30 18:23:37;;;;;;;18.80;12.50;;;;;;;1.37;90.89;99080.77;214406;1265;61379;-77
2023/01/30 18:28:30;;;;;;;15.30;12.50;;;;;;;1.40;90.84;99072.83;214385;1262;61265;-77
2023/01/30 18:33:23;;;;;;;16.80;11.20;;;;;;;1.43;90.86;99077.70;214468;1263;61233;-76
2023/01/30 18:38:16;;;;;;;14.50;11.40;;;;;;;1.45;91.15;99090.56;214352;1267;61318;-77
2023/01/30 18:43:09;;;;;;;16.00;11.20;;;;;;;1.47;90.83;99089.77;214327;1266;73688;-77
2023/01/30 18:48:02;;;;;;;14.30;10.70;;;;;;;1.51;90.83;99088.33;214426;1264;61380;-77
2023/01/30 18:52:55;;;;;;;12.40;8.90;;;;;;;1.53;90.51;99086.67;214439;1266;61241;-76
2023/01/30 18:57:47;;;;;;;11.60;9.10;;;;;;;1.56;90.82;99085.36;214481;1265;61489;-79
2023/01/30 19:02:40;;;;;;;10.70;8.10;;;;;;;1.58;90.59;99087.64;214580;1264;61394;-76
2023/01/30 19:07:35;;;;;;;13.00;9.00;;;;;;;1.60;90.44;99084.63;214420;1265;61258;-76
2023/01/30 19:17:38;;;;;;;13.20;9.80;;;;;;;1.60;90.77;99080.17;214414;1267;65915;-76
2023/01/30 19:22:31;;;;;;;13.10;8.00;;;;;;;1.61;90.84;99079.02;214347;1266;61283;-75
2023/01/30 19:27:24;;;;;;;9.90;8.60;;;;;;;1.61;90.82;99081.40;214434;1265;61379;-76
2023/01/30 19:32:17;;;;;;;10.20;7.20;;;;;;;1.61;90.67;99082.61;214380;1264;73490;-76
2023/01/30 19:37:11;;;;;;;12.40;7.70;;;;;;;1.61;90.68;99080.21;214306;1265;61360;-76
2023/01/30 19:42:04;;;;;;;15.50;9.90;;;;;;;1.60;90.90;99082.91;214359;1265;66777;-76
2023/01/30 19:46:57;;;;;;;14.20;9.60;;;;;;;1.61;90.75;99083.30;214372;1265;61208;-76
2023/01/30 19:51:50;;;;;;;15.60;9.50;;;;;;;1.61;90.77;99083.45;214355;1266;74598;-76
2023/01/30 19:56:47;;;;;;;14.60;10.50;;;;;;;1.61;90.76;99083.13;214324;1265;61351;-76
2023/01/30 20:01:40;;;;;;;13.10;10.70;;;;;;;1.64;90.77;99089.02;214377;1265;61267;-76
2023/01/30 20:06:35;;;;;;;14.40;10.40;;;;;;;1.67;90.76;99085.84;214363;1264;61472;-76
2023/01/30 20:11:29;;;;;;;14.80;9.30;;;;;;;1.69;90.72;99084.70;214498;1264;61383;-76
2023/01/30 20:16:26;;;;;;;11.90;8.70;;;;;;;1.71;90.75;99095.02;214375;1264;75403;-76
2023/01/30 20:21:20;;;;;;;9.40;8.40;;;;;;;1.73;91.03;99092.14;214385;1267;71367;-77
2023/01/30 20:26:19;;;;;;;9.90;8.40;;;;;;;1.74;90.73;99091.84;214380;1264;61372;-77
2023/01/30 20:31:17;;;;;;;13.30;8.00;;;;;;;1.77;90.92;99091.91;214326;1264;66858;-76
2023/01/30 20:36:13;;;;;;;11.50;8.40;;;;;;;1.80;91.06;99090.10;214367;1264;61275;-76
2023/01/30 20:41:09;;;;;;;11.00;8.30;;;;;;;1.82;91.03;99098.52;214293;1264;74991;-75
2023/01/30 20:46:07;;;;;;;15.30;8.90;;;;;;;1.82;90.96;99113.05;214406;1265;74301;-73
2023/01/30 20:51:05;;;;;;;13.20;9.00;;;;;;;1.82;91.35;99127.42;214537;1264;61475;-74
2023/01/30 20:55:59;;;;;;;13.40;9.80;;;;;;;1.83;91.07;99145.06;214369;1264;68011;-73
2023/01/30 21:00:52;;;;;;;10.20;8.10;;;;;;;1.84;91.08;99147.63;214577;1264;61346;-74
2023/01/30 21:05:56;;;;;;;10.60;8.70;;;;;;;1.86;91.33;99147.33;214394;1266;75738;-74
2023/01/30 21:10:49;;;;;;;12.30;8.90;;;;;;;1.87;90.86;99150.95;214293;1264;71629;-74
2023/01/30 21:15:42;;;;;;;11.40;8.80;;;;;;;1.88;90.76;99154.92;214252;1268;61903;-74
2023/01/30 21:20:34;;;;;;;11.70;9.10;;;;;;;1.90;90.94;99161.80;214359;1265;61432;-73
2023/01/30 21:25:27;;;;;;;10.40;7.00;;;;;;;1.92;90.56;99169.86;214247;1265;61382;-75
2023/01/30 21:30:20;;;;;;;10.30;8.00;;;;;;;1.92;90.58;99176.02;214374;1267;61263;-74
2023/01/30 21:35:13;;;;;;;11.30;7.90;;;;;;;1.92;90.55;99175.69;214277;1263;61393;-75
2023/01/30 21:45:19;;;;;;;12.20;7.70;;;;;;;1.93;90.22;99179.80;214160;1267;67860;-76
2023/01/30 21:50:13;;;;;;;9.40;7.00;;;;;;;1.92;90.44;99185.59;214190;1265;61635;-75
2023/01/30 21:55:06;;;;;;;7.30;5.90;;;;;;;1.92;90.37;99180.13;214150;1266;61281;-75
2023/01/30 21:59:59;;;;;;;9.50;7.00;;;;;;;1.90;90.36;99181.80;214207;1268;72785;-75
2023/01/30 22:04:52;;;;;;;13.30;7.80;;;;;;;1.90;90.09;99192.56;214190;1266;64245;-75
2023/01/30 22:09:47;;;;;;;9.70;7.60;;;;;;;1.89;90.08;99194.75;214347;1265;61307;-75
2023/01/30 22:14:40;;;;;;;9.10;7.60;;;;;;;1.88;89.92;99194.55;214400;1266;63279;-74
2023/01/30 22:19:35;;;;;;;10.70;8.20;;;;;;;1.87;90.07;99204.94;214333;1264;61327;-75
2023/01/30 22:24:28;;;;;;;12.50;8.90;;;;;;;1.86;90.22;99199.77;214434;1264;72344;-75
2023/01/30 22:29:21;;;;;;;10.90;7.40;;;;;;;1.84;90.14;99208.44;214285;1267;61317;-75
2023/01/30 22:34:14;;;;;;;13.00;7.50;;;;;;;1.82;90.11;99218.65;214315;1264;61277;-75
2023/01/30 22:39:09;;;;;;;11.10;7.50;;;;;;;1.81;89.98;99223.91;214387;1267;61359;-75
2023/01/30 22:44:04;;;;;;;9.30;7.10;;;;;;;1.80;89.86;99227.64;214391;1264;72725;-75
2023/01/30 22:48:59;;;;;;;12.50;7.80;;;;;;;1.80;89.85;99228.83;214310;1264;72581;-75
2023/01/30 22:53:57;;;;;;;11.20;7.10;;;;;;;1.79;89.90;99238.56;214265;1264;61466;-75
2023/01/30 22:58:51;;;;;;;9.30;6.90;;;;;;;1.81;89.90;99238.43;214368;1264;67020;-74
2023/01/30 23:03:45;;;;;;;15.40;7.10;;;;;;;1.82;89.87;99242.73;214235;1264;61468;-75
2023/01/30 23:08:41;;;;;;;10.50;7.40;;;;;;;1.84;90.07;99239.90;214337;1267;74456;-75
2023/01/30 23:13:35;;;;;;;10.50;7.50;;;;;;;1.85;90.03;99239.92;214333;1268;73112;-75